Time;durP1;ratioP1;P1;durP2;ratioP2;P2;SDS_P1;SDS_P2;PMS_P1;PMS_P2;Temp;Humidity;BMP_temperature;BMP_pressure;BME280_temperature;BME280_humidity;BME280_pressure;Samples;Min_cycle;Max_cycle;Signal;HPM_P1;HPM_P2
2023/09/29 00:02:22;;;;;;;10.48;4.68;;;;;;;17.46;77.73;101462.03;5038368;28;20025;-71
2023/09/29 00:04:47;;;;;;;12.52;4.45;;;;;;;17.53;78.19;101464.25;5046476;28;20032;-71
2023/09/29 00:07:13;;;;;;;9.32;4.53;;;;;;;17.56;78.21;101469.38;5041110;28;20144;-71
2023/09/29 00:09:38;;;;;;;9.43;4.88;;;;;;;17.58;77.67;101466.66;5033811;28;20024;-71
2023/09/29 00:12:03;;;;;;;9.40;4.30;;;;;;;17.58;77.78;101461.31;5035711;28;20370;-71
2023/09/29 00:14:30;;;;;;;7.78;4.43;;;;;;;17.51;77.68;101467.94;5037260;28;20070;-71
2023/09/29 00:16:55;;;;;;;13.30;5.25;;;;;;;17.50;78.79;101466.22;5040968;28;20029;-71
2023/09/29 00:19:20;;;;;;;9.52;4.55;;;;;;;17.50;78.50;101463.56;5046131;28;20392;-71
2023/09/29 00:21:46;;;;;;;12.00;4.55;;;;;;;17.54;77.88;101463.28;5048728;28;20035;-71
2023/09/29 00:24:11;;;;;;;10.68;4.40;;;;;;;17.58;77.97;101464.84;5052209;28;20025;-71
2023/09/29 00:26:36;;;;;;;10.10;4.40;;;;;;;17.63;77.31;101464.56;5043784;28;20024;-71
2023/09/29 00:29:02;;;;;;;11.10;4.70;;;;;;;17.66;77.40;101459.00;5051245;28;20033;-71
2023/09/29 00:31:28;;;;;;;9.63;4.18;;;;;;;17.67;77.65;101460.72;5048857;28;20369;-71
2023/09/29 00:33:53;;;;;;;11.38;4.45;;;;;;;17.65;78.03;101467.13;5047353;28;20299;-71
2023/09/29 00:36:19;;;;;;;10.80;4.32;;;;;;;17.60;78.24;101457.56;5048776;28;20381;-71
2023/09/29 00:38:44;;;;;;;13.40;4.65;;;;;;;17.62;78.54;101460.13;5046320;28;20052;-71
2023/09/29 00:41:09;;;;;;;10.70;4.07;;;;;;;17.68;78.09;101454.44;5042669;28;20086;-69
2023/09/29 00:43:35;;;;;;;10.68;4.72;;;;;;;17.71;77.95;101454.25;5058203;28;20526;-69
2023/09/29 00:46:03;;;;;;;12.00;4.32;;;;;;;17.81;77.57;101447.44;5037395;28;20017;-69
2023/09/29 00:48:32;;;;;;;11.35;4.45;;;;;;;17.67;78.09;101457.19;5057634;28;20119;-69
2023/09/29 00:50:59;;;;;;;6.38;4.50;;;;;;;17.66;78.42;101447.44;5044893;28;20337;-71
2023/09/29 00:53:25;;;;;;;10.27;4.40;;;;;;;17.75;77.96;101447.78;5057520;28;20029;-71
2023/09/29 00:55:51;;;;;;;10.88;4.80;;;;;;;17.76;77.90;101441.47;5045911;28;20025;-71
2023/09/29 00:58:17;;;;;;;8.80;4.13;;;;;;;17.96;77.52;101432.25;5042100;28;20045;-71
2023/09/29 01:00:42;;;;;;;8.50;4.75;;;;;;;17.99;77.57;101448.09;5048083;28;20119;-71
2023/09/29 01:03:10;;;;;;;8.13;4.18;;;;;;;17.83;77.72;101441.97;5054534;28;20096;-71
2023/09/29 01:05:38;;;;;;;8.27;4.25;;;;;;;17.78;78.02;101442.25;5060423;28;20028;-71
2023/09/29 01:08:08;;;;;;;8.60;3.92;;;;;;;17.82;77.50;101448.28;5050330;28;20546;-71
2023/09/29 01:10:35;;;;;;;6.05;3.83;;;;;;;17.84;77.92;101444.56;5045087;28;20425;-71
2023/09/29 01:13:00;;;;;;;8.15;4.38;;;;;;;17.86;78.01;101441.81;5052246;28;20071;-71
2023/09/29 01:15:25;;;;;;;9.77;3.90;;;;;;;17.83;78.23;101436.63;5050075;28;20052;-71
2023/09/29 01:17:51;;;;;;;9.32;4.15;;;;;;;17.79;78.02;101429.75;5048642;28;20103;-71
2023/09/29 01:20:24;;;;;;;7.00;4.10;;;;;;;17.79;77.59;101430.59;5042779;28;20017;-71
2023/09/29 01:22:50;;;;;;;9.80;3.70;;;;;;;17.90;77.31;101426.41;5044637;28;20017;-71
2023/09/29 01:25:20;;;;;;;8.88;3.85;;;;;;;18.02;77.11;101415.81;5039530;28;20025;-71
2023/09/29 01:27:46;;;;;;;9.23;4.55;;;;;;;18.04;76.98;101415.72;5032791;28;20505;-71
2023/09/29 01:30:13;;;;;;;10.27;3.78;;;;;;;18.03;76.77;101420.19;5038012;28;20025;-71
2023/09/29 01:32:41;;;;;;;6.70;3.55;;;;;;;18.01;76.93;101414.09;5038654;28;20030;-71
2023/09/29 01:35:06;;;;;;;8.93;4.38;;;;;;;18.01;77.04;101415.91;5053294;28;20480;-71
2023/09/29 01:37:33;;;;;;;9.43;3.88;;;;;;;17.93;78.17;101402.16;5048605;28;20024;-71
2023/09/29 01:39:58;;;;;;;7.90;3.72;;;;;;;17.93;78.00;101402.16;5047310;28;20032;-71
2023/09/29 01:42:24;;;;;;;6.97;3.63;;;;;;;17.88;78.37;101399.75;5050801;28;20029;-71
2023/09/29 01:44:49;;;;;;;6.00;3.85;;;;;;;17.89;77.33;101392.59;5050757;28;20036;-71
2023/09/29 01:47:14;;;;;;;6.88;3.50;;;;;;;17.88;77.22;101389.06;5047039;28;20420;-71
2023/09/29 01:49:40;;;;;;;6.32;3.08;;;;;;;17.97;77.36;101387.63;5044443;28;20028;-71
2023/09/29 01:52:07;;;;;;;7.90;4.03;;;;;;;17.67;77.99;101385.84;5042947;28;20052;-71
2023/09/29 01:54:33;;;;;;;6.97;3.72;;;;;;;17.76;78.38;101385.31;5045159;28;20078;-71
2023/09/29 01:57:01;;;;;;;8.23;3.80;;;;;;;17.79;78.31;101386.94;5046382;28;20033;-71
2023/09/29 01:59:27;;;;;;;6.28;3.75;;;;;;;17.81;77.96;101377.91;5051357;28;20040;-71
2023/09/29 02:01:53;;;;;;;6.10;3.80;;;;;;;17.85;77.70;101374.03;5052570;28;20495;-71
2023/09/29 02:04:18;;;;;;;7.72;3.53;;;;;;;17.81;77.61;101377.91;5056676;28;20028;-71
2023/09/29 02:06:44;;;;;;;9.52;3.40;;;;;;;17.83;77.92;101375.97;5043177;28;20358;-71
2023/09/29 02:09:10;;;;;;;6.03;3.60;;;;;;;17.82;78.28;101371.59;5049539;28;20048;-71
2023/09/29 02:11:40;;;;;;;5.60;3.33;;;;;;;17.84;77.31;101374.16;5047299;28;20032;-71
2023/09/29 02:14:05;;;;;;;6.45;3.20;;;;;;;17.83;77.01;101370.63;5046467;28;20112;-71
2023/09/29 02:16:31;;;;;;;3.88;3.20;;;;;;;17.85;77.14;101368.69;5041764;28;20112;-71
2023/09/29 02:18:56;;;;;;;5.50;3.30;;;;;;;17.83;77.56;101370.63;5046763;28;20022;-71
2023/09/29 02:21:22;;;;;;;7.97;3.50;;;;;;;17.80;77.58;101370.81;5037588;28;20041;-71
2023/09/29 02:23:48;;;;;;;5.32;3.15;;;;;;;17.83;76.71;101378.66;5040826;28;20028;-71
2023/09/29 02:26:14;;;;;;;6.53;3.15;;;;;;;17.88;76.28;101372.16;5056538;28;20024;-71
2023/09/29 02:28:39;;;;;;;5.07;3.40;;;;;;;17.92;75.92;101363.84;5041356;28;20160;-71
2023/09/29 02:31:12;;;;;;;4.65;2.90;;;;;;;17.94;76.27;101353.88;5048806;28;20115;-71
2023/09/29 02:33:39;;;;;;;6.18;2.47;;;;;;;17.95;75.58;101347.63;5049762;28;20401;-71
2023/09/29 02:36:04;;;;;;;10.50;2.70;;;;;;;17.97;75.70;101353.72;5043423;28;20024;-71
2023/09/29 02:38:29;;;;;;;5.50;2.88;;;;;;;17.98;75.61;101352.75;5053449;28;20021;-71
2023/09/29 02:40:55;;;;;;;5.65;3.00;;;;;;;17.99;75.35;101351.78;5043119;28;20033;-71
2023/09/29 02:43:20;;;;;;;6.15;2.85;;;;;;;18.00;75.47;101352.63;5058017;28;20511;-71
2023/09/29 02:45:45;;;;;;;4.97;3.00;;;;;;;18.04;75.24;101343.47;5051113;28;20383;-71
2023/09/29 02:48:11;;;;;;;5.10;2.78;;;;;;;18.08;75.21;101342.31;5044033;28;20036;-71
2023/09/29 02:50:36;;;;;;;5.40;2.90;;;;;;;18.10;75.33;101335.06;5050471;28;20510;-71
2023/09/29 02:53:05;;;;;;;4.85;2.80;;;;;;;18.14;75.45;101330.34;5051497;28;20035;-71
2023/09/29 02:55:30;;;;;;;3.90;2.50;;;;;;;18.14;75.75;101339.28;5045780;28;20334;-71
2023/09/29 02:57:56;;;;;;;4.40;2.65;;;;;;;18.15;75.25;101343.66;5038813;28;20044;-71
2023/09/29 03:00:27;;;;;;;4.47;2.70;;;;;;;18.18;75.11;101335.41;5047218;28;20477;-71
2023/09/29 03:02:52;;;;;;;5.22;2.47;;;;;;;18.18;75.20;101329.22;5060267;28;20024;-69
2023/09/29 03:05:21;;;;;;;3.88;2.42;;;;;;;18.18;75.41;101319.34;5050167;28;20039;-69
2023/09/29 03:07:46;;;;;;;4.25;2.75;;;;;;;18.16;75.81;101315.09;5051369;28;20051;-69
2023/09/29 03:10:16;;;;;;;5.32;2.45;;;;;;;18.16;76.09;101315.94;5048434;28;20028;-69
2023/09/29 03:12:43;;;;;;;4.30;2.13;;;;;;;18.15;75.77;101324.06;5052777;28;20024;-71
2023/09/29 03:15:14;;;;;;;8.35;2.50;;;;;;;18.12;76.43;101322.44;5040891;28;20054;-71
2023/09/29 03:17:39;;;;;;;4.47;2.88;;;;;;;18.13;76.63;101318.78;5038362;28;20425;-71
2023/09/29 03:20:09;;;;;;;4.10;2.85;;;;;;;18.13;76.16;101320.63;5041635;28;20025;-71
2023/09/29 03:22:37;;;;;;;5.25;2.65;;;;;;;18.16;76.18;101317.75;5042900;28;20421;-71
2023/09/29 03:25:04;;;;;;;4.65;3.03;;;;;;;18.13;75.66;101318.78;5041343;28;20028;-71
2023/09/29 03:27:29;;;;;;;4.55;2.70;;;;;;;18.19;76.76;101314.91;5040056;28;20036;-71
2023/09/29 03:29:54;;;;;;;4.65;2.80;;;;;;;18.09;76.26;101315.47;5052888;28;20040;-71
2023/09/29 03:32:20;;;;;;;5.15;2.60;;;;;;;17.98;77.12;101309.09;5050059;28;20483;-71
2023/09/29 03:34:45;;;;;;;5.47;2.72;;;;;;;17.91;77.85;101302.41;5052991;28;20472;-71
2023/09/29 03:37:10;;;;;;;6.28;2.78;;;;;;;17.85;77.48;101298.28;5041807;28;20021;-71
2023/09/29 03:39:36;;;;;;;3.80;2.70;;;;;;;17.83;78.41;101294.88;5046901;28;20033;-71
2023/09/29 03:42:01;;;;;;;4.18;2.80;;;;;;;18.02;76.69;101298.09;5036426;28;20530;-71
2023/09/29 03:44:27;;;;;;;6.68;3.22;;;;;;;18.03;78.08;101288.25;5025673;28;20029;-71
2023/09/29 03:46:53;;;;;;;4.78;3.10;;;;;;;18.02;78.23;101263.31;5041794;28;20029;-71
2023/09/29 03:49:19;;;;;;;5.20;2.75;;;;;;;18.03;77.95;101269.50;5045530;28;20024;-71
2023/09/29 03:51:44;;;;;;;5.82;3.13;;;;;;;18.02;77.93;101263.31;5050634;28;20187;-71
2023/09/29 03:54:10;;;;;;;4.13;2.85;;;;;;;18.05;78.78;101271.16;5040001;28;20496;-71
2023/09/29 03:56:35;;;;;;;4.60;2.33;;;;;;;18.05;78.02;101273.81;5048466;28;20031;-71
2023/09/29 03:59:00;;;;;;;5.03;3.30;;;;;;;18.01;78.21;101268.75;5048227;28;20494;-71
2023/09/29 04:01:27;;;;;;;4.38;2.80;;;;;;;18.01;78.26;101263.41;5041758;28;20120;-71
2023/09/29 04:03:54;;;;;;;4.70;2.90;;;;;;;18.01;78.99;101260.75;5047266;28;20017;-71
2023/09/29 04:06:19;;;;;;;3.63;2.50;;;;;;;17.89;79.10;101269.53;5032886;28;20032;-71
2023/09/29 04:08:44;;;;;;;5.70;3.10;;;;;;;17.98;78.63;101259.09;5035850;28;20045;-71
2023/09/29 04:11:10;;;;;;;4.60;3.17;;;;;;;18.00;79.27;101256.31;5045487;28;20028;-71
2023/09/29 04:13:36;;;;;;;4.90;3.03;;;;;;;17.99;78.76;101246.59;5037279;28;20065;-71
2023/09/29 04:16:05;;;;;;;3.78;2.78;;;;;;;17.97;78.73;101251.19;5047072;28;20052;-71
2023/09/29 04:18:31;;;;;;;4.88;3.38;;;;;;;17.95;80.08;101256.66;5047122;28;20032;-71
2023/09/29 04:20:56;;;;;;;5.15;3.00;;;;;;;17.99;80.12;101259.97;5037634;28;20088;-71
2023/09/29 04:23:21;;;;;;;6.03;3.03;;;;;;;18.02;79.56;101262.44;5040941;28;20029;-69
2023/09/29 04:25:46;;;;;;;7.32;3.25;;;;;;;18.02;79.61;101257.09;5040707;28;20377;-69
2023/09/29 04:28:12;;;;;;;5.43;3.40;;;;;;;18.06;79.52;101247.91;5042796;28;20029;-69
2023/09/29 04:30:37;;;;;;;5.68;3.00;;;;;;;17.84;80.62;101240.41;5040695;28;20056;-69
2023/09/29 04:33:03;;;;;;;5.65;3.00;;;;;;;17.83;81.25;101233.34;5041862;28;20088;-69
2023/09/29 04:35:28;;;;;;;4.20;3.35;;;;;;;18.08;80.53;101235.28;5044637;28;20269;-69
2023/09/29 04:37:53;;;;;;;3.70;3.10;;;;;;;17.94;80.09;101238.84;5043146;28;20028;-69
2023/09/29 04:40:19;;;;;;;4.40;3.22;;;;;;;17.88;81.25;101236.59;5044488;28;20025;-69
2023/09/29 04:42:45;;;;;;;6.88;3.15;;;;;;;17.88;81.80;101246.44;5039638;28;20020;-69
2023/09/29 04:45:10;;;;;;;5.43;2.83;;;;;;;17.90;81.01;101241.81;5041083;28;20028;-69
2023/09/29 04:47:35;;;;;;;6.22;2.90;;;;;;;17.91;81.33;101231.06;5028224;28;20466;-69
2023/09/29 04:50:01;;;;;;;5.18;3.17;;;;;;;17.92;81.51;101219.38;5049720;28;20043;-69
2023/09/29 04:52:26;;;;;;;5.25;3.08;;;;;;;17.93;81.70;101220.25;5044333;28;20032;-69
2023/09/29 04:54:52;;;;;;;4.45;3.00;;;;;;;17.95;81.48;101237.03;5057751;28;20468;-69
2023/09/29 04:57:18;;;;;;;4.95;3.10;;;;;;;17.97;82.03;101227.97;5041800;28;20124;-69
2023/09/29 04:59:43;;;;;;;3.63;2.53;;;;;;;17.98;80.71;101237.69;5042590;28;20036;-69
2023/09/29 05:02:09;;;;;;;6.07;3.08;;;;;;;18.03;81.59;101243.59;5039720;28;20021;-69
2023/09/29 05:04:34;;;;;;;5.78;3.50;;;;;;;17.97;81.34;101244.03;5046259;28;20037;-69
2023/09/29 05:06:59;;;;;;;5.20;3.05;;;;;;;17.95;82.31;101237.03;5049366;28;20034;-69
2023/09/29 05:09:25;;;;;;;3.53;2.70;;;;;;;18.22;81.13;101232.56;5049787;28;20103;-69
2023/09/29 05:11:50;;;;;;;5.20;2.72;;;;;;;18.17;80.87;101231.16;5039124;28;20052;-69
2023/09/29 05:14:15;;;;;;;7.82;3.40;;;;;;;18.26;80.71;101228.72;5038525;28;20378;-69
2023/09/29 05:16:40;;;;;;;3.95;2.60;;;;;;;18.23;80.92;101228.94;5044623;28;20033;-68
2023/09/29 05:19:06;;;;;;;4.68;3.03;;;;;;;18.24;80.56;101219.94;5044257;28;20107;-69
2023/09/29 05:21:32;;;;;;;3.33;2.50;;;;;;;18.23;81.13;101222.72;5038081;28;20437;-69
2023/09/29 05:23:57;;;;;;;3.75;2.85;;;;;;;18.24;80.85;101214.59;5039433;28;20016;-69
2023/09/29 05:26:23;;;;;;;5.88;2.88;;;;;;;18.25;81.86;101216.31;5051947;28;20049;-69
2023/09/29 05:28:51;;;;;;;6.72;3.05;;;;;;;18.25;81.90;101210.97;5042405;28;20032;-69
2023/09/29 05:31:16;;;;;;;5.35;3.00;;;;;;;18.25;81.89;101207.44;5055063;28;20029;-69
2023/09/29 05:33:42;;;;;;;4.28;3.20;;;;;;;18.22;81.97;101211.16;5057709;28;20075;-69
2023/09/29 05:36:07;;;;;;;4.72;3.15;;;;;;;18.20;81.87;101213.09;5056448;28;20136;-69
2023/09/29 05:38:32;;;;;;;5.95;2.80;;;;;;;18.20;82.12;101206.88;5053568;28;20028;-69
2023/09/29 05:40:57;;;;;;;4.32;3.08;;;;;;;18.06;82.65;101213.13;5045832;28;20029;-69
2023/09/29 05:43:23;;;;;;;4.55;2.80;;;;;;;18.24;82.21;101203.91;5046292;28;20044;-69
2023/09/29 05:45:48;;;;;;;3.17;2.78;;;;;;;18.27;81.85;101216.19;5044882;28;20020;-69
2023/09/29 05:48:15;;;;;;;4.65;3.40;;;;;;;18.26;81.73;101210.00;5052680;28;20112;-69
2023/09/29 05:50:40;;;;;;;3.15;2.70;;;;;;;18.37;81.76;101214.63;5044335;28;20028;-69
2023/09/29 05:53:06;;;;;;;3.63;2.90;;;;;;;18.34;82.18;101213.03;5049942;28;20103;-69
2023/09/29 05:55:31;;;;;;;3.85;2.88;;;;;;;18.39;82.25;101214.53;5047263;28;20032;-69
2023/09/29 05:57:57;;;;;;;5.55;2.90;;;;;;;18.39;82.41;101217.22;5040920;28;20032;-69
2023/09/29 06:00:24;;;;;;;5.07;3.00;;;;;;;18.40;82.63;101210.91;5037778;28;20109;-72
2023/09/29 06:02:50;;;;;;;4.22;2.80;;;;;;;18.43;81.94;101208.03;5049132;28;20036;-72
2023/09/29 06:05:16;;;;;;;5.72;3.38;;;;;;;18.47;82.34;101210.38;5048726;28;20026;-71
2023/09/29 06:07:41;;;;;;;3.33;2.97;;;;;;;18.49;82.57;101210.28;5037618;28;20057;-72
2023/09/29 06:10:07;;;;;;;6.80;3.10;;;;;;;18.50;82.15;101210.16;5047802;28;20021;-72
2023/09/29 06:12:36;;;;;;;6.57;2.97;;;;;;;18.54;82.81;101205.47;5033752;28;20751;-71
2023/09/29 06:15:01;;;;;;;4.47;3.40;;;;;;;18.58;82.27;101212.34;5031330;28;20057;-71
2023/09/29 06:17:26;;;;;;;4.32;2.92;;;;;;;18.62;82.21;101219.19;5037738;28;20064;-72
2023/09/29 06:19:52;;;;;;;4.28;2.65;;;;;;;18.71;81.46;101225.78;5045936;28;20395;-72
2023/09/29 06:22:18;;;;;;;3.60;2.97;;;;;;;18.75;82.09;101230.84;5034081;28;20033;-71
2023/09/29 06:24:44;;;;;;;3.88;2.70;;;;;;;18.79;81.15;101237.69;5044620;28;20021;-72
2023/09/29 06:27:10;;;;;;;6.43;2.97;;;;;;;18.86;81.41;101227.41;5037177;28;20646;-72
2023/09/29 06:29:36;;;;;;;4.50;2.83;;;;;;;18.93;81.13;101225.16;5040638;28;20520;-72
2023/09/29 06:32:01;;;;;;;4.05;3.05;;;;;;;18.95;81.30;101213.38;5043080;28;20115;-72
2023/09/29 06:34:26;;;;;;;5.78;2.97;;;;;;;18.98;81.29;101209.63;5044463;28;20033;-72
2023/09/29 06:36:52;;;;;;;5.18;3.13;;;;;;;18.98;81.64;101215.84;5032015;28;20033;-72
2023/09/29 06:39:17;;;;;;;4.05;2.70;;;;;;;19.02;81.27;101217.34;5035700;28;20028;-72
2023/09/29 06:41:42;;;;;;;5.20;3.13;;;;;;;19.08;81.35;101224.97;5043613;28;20041;-72
2023/09/29 06:44:08;;;;;;;3.53;2.72;;;;;;;19.15;81.36;101222.69;5044785;28;20029;-72
2023/09/29 06:46:33;;;;;;;7.68;3.05;;;;;;;19.16;81.18;101223.56;5044610;28;20447;-72
2023/09/29 06:49:01;;;;;;;4.45;3.13;;;;;;;19.26;80.56;101228.19;5050089;28;20029;-72
2023/09/29 06:51:27;;;;;;;3.20;2.78;;;;;;;19.29;80.31;101235.13;5050145;28;20353;-71
2023/09/29 06:53:52;;;;;;;4.80;2.80;;;;;;;19.40;80.78;101237.06;5044918;28;20053;-71
2023/09/29 06:56:18;;;;;;;3.38;2.33;;;;;;;19.46;80.77;101240.19;5054095;28;20515;-71
2023/09/29 06:58:44;;;;;;;5.68;2.80;;;;;;;19.43;81.16;101239.53;5040006;28;20477;-71
2023/09/29 07:01:09;;;;;;;3.67;2.30;;;;;;;19.43;80.19;101248.44;5032998;28;20017;-71
2023/09/29 07:03:34;;;;;;;4.50;2.75;;;;;;;19.47;80.88;101241.88;5046947;28;20044;-71
2023/09/29 07:06:01;;;;;;;3.83;2.42;;;;;;;19.54;80.96;101245.84;5043247;28;20061;-71
2023/09/29 07:08:27;;;;;;;5.75;2.45;;;;;;;19.61;80.28;101244.47;5043005;28;20053;-71
2023/09/29 07:10:52;;;;;;;4.57;2.60;;;;;;;19.65;80.09;101242.44;5039180;28;20044;-72
2023/09/29 07:13:18;;;;;;;3.33;2.30;;;;;;;19.67;80.14;101245.84;5037923;28;20481;-72
2023/09/29 07:15:45;;;;;;;3.30;2.38;;;;;;;19.71;80.58;101247.34;5048141;28;20468;-71
2023/09/29 07:18:12;;;;;;;5.03;2.53;;;;;;;19.71;79.09;101247.34;5037580;28;20658;-71
2023/09/29 07:20:40;;;;;;;5.78;2.70;;;;;;;19.79;79.95;101250.34;5045706;28;20112;-71
2023/09/29 07:23:08;;;;;;;6.43;2.88;;;;;;;19.87;79.23;101242.59;5039612;28;20026;-71
2023/09/29 07:25:33;;;;;;;4.72;2.80;;;;;;;19.96;79.75;101240.19;5052639;28;20545;-71
2023/09/29 07:27:59;;;;;;;3.08;2.60;;;;;;;20.10;79.14;101237.38;5045746;28;20033;-71
2023/09/29 07:30:24;;;;;;;4.80;2.25;;;;;;;20.29;77.23;101250.28;5043791;28;20032;-71
2023/09/29 07:32:50;;;;;;;3.38;2.00;;;;;;;20.49;76.56;101255.06;5046542;28;20513;-72
2023/09/29 07:35:15;;;;;;;4.25;2.60;;;;;;;20.65;75.93;101254.75;5037354;28;20032;-71
2023/09/29 07:37:40;;;;;;;3.63;2.38;;;;;;;20.79;75.28;101249.16;5049642;28;20512;-71
2023/09/29 07:40:09;;;;;;;4.03;2.28;;;;;;;21.00;74.71;101254.72;5059082;28;20230;-71
2023/09/29 07:42:35;;;;;;;4.00;2.47;;;;;;;21.18;74.04;101256.97;5054011;28;20408;-72
2023/09/29 07:45:00;;;;;;;5.40;2.33;;;;;;;21.26;73.03;101254.53;5051074;28;20036;-71
2023/09/29 07:47:25;;;;;;;2.55;2.33;;;;;;;21.39;72.86;101255.31;5051097;28;20123;-72
2023/09/29 07:49:51;;;;;;;4.22;2.40;;;;;;;21.45;72.12;101252.16;5050894;28;20090;-72
2023/09/29 07:52:16;;;;;;;4.43;2.17;;;;;;;21.57;72.12;101261.91;5050006;28;20056;-72
2023/09/29 07:54:41;;;;;;;4.65;2.70;;;;;;;21.72;71.35;101262.53;5046981;28;20070;-72
2023/09/29 07:57:07;;;;;;;7.60;2.30;;;;;;;22.06;70.70;101263.34;5040259;28;20108;-72
2023/09/29 07:59:32;;;;;;;6.13;2.20;;;;;;;22.44;69.34;101262.06;5047369;28;20033;-72
2023/09/29 08:01:58;;;;;;;4.35;2.05;;;;;;;;;;5043702;28;20025;-72
2023/09/29 08:04:24;;;;;;;3.85;2.22;;;;;;;22.65;66.95;101270.16;5050219;28;20423;-72
2023/09/29 08:06:49;;;;;;;4.75;2.33;;;;;;;22.76;66.86;101267.44;5051387;28;20017;-72
2023/09/29 08:09:14;;;;;;;3.80;2.13;;;;;;;22.94;66.42;101262.31;5052586;28;20172;-72
2023/09/29 08:11:42;;;;;;;2.42;2.05;;;;;;;22.96;66.46;101268.44;5056888;28;20028;-72
2023/09/29 08:14:08;;;;;;;2.83;2.20;;;;;;;23.19;65.64;101273.72;5049639;28;20024;-72
2023/09/29 08:16:34;;;;;;;3.90;2.20;;;;;;;23.44;64.89;101302.97;5050409;28;20120;-72
2023/09/29 08:18:59;;;;;;;2.72;2.08;;;;;;;23.28;64.83;101295.34;5046785;28;20028;-72
2023/09/29 08:21:25;;;;;;;5.05;2.05;;;;;;;23.13;65.04;101289.44;5042966;28;20025;-72
2023/09/29 08:23:50;;;;;;;4.93;2.20;;;;;;;23.13;64.92;101294.00;5044368;28;20016;-72
2023/09/29 08:26:16;;;;;;;2.50;2.10;;;;;;;23.30;64.52;101297.91;5035008;28;20033;-72
2023/09/29 08:28:42;;;;;;;5.97;2.00;;;;;;;23.28;65.28;101303.44;5039048;28;20025;-72
2023/09/29 08:31:17;;;;;;;4.22;2.05;;;;;;;23.34;65.77;101304.75;5046086;28;20040;-72
2023/09/29 08:33:43;;;;;;;3.58;2.35;;;;;;;23.29;64.33;101302.44;5036013;28;20447;-72
2023/09/29 08:36:08;;;;;;;3.25;2.00;;;;;;;23.63;64.34;101304.91;5058009;28;20488;-72
2023/09/29 08:38:34;;;;;;;6.40;2.50;;;;;;;23.81;63.16;101306.00;5055838;28;20029;-72
2023/09/29 08:41:03;;;;;;;4.88;2.30;;;;;;;23.68;63.28;101310.78;5058560;28;20048;-72
2023/09/29 08:43:29;;;;;;;3.90;2.42;;;;;;;23.53;63.21;101315.66;5049174;28;20361;-72
2023/09/29 08:46:00;;;;;;;3.65;2.53;;;;;;;23.65;63.01;101316.47;5039743;28;20023;-72
2023/09/29 08:48:27;;;;;;;4.38;2.55;;;;;;;23.69;63.93;101317.91;5058103;28;20396;-72
2023/09/29 08:50:56;;;;;;;6.68;2.55;;;;;;;23.67;62.87;101311.78;5052918;28;20029;-71
2023/09/29 08:53:25;;;;;;;5.53;3.03;;;;;;;23.54;63.50;101319.19;5043691;28;20111;-73
2023/09/29 08:55:52;;;;;;;3.90;2.13;;;;;;;23.45;63.11;101330.78;5033104;28;20053;-72
2023/09/29 08:58:18;;;;;;;3.13;2.03;;;;;;;23.13;64.50;101327.22;5045260;28;20040;-72
2023/09/29 09:00:43;;;;;;;4.05;2.33;;;;;;;23.11;65.21;101337.25;5046026;28;20071;-72
2023/09/29 09:03:09;;;;;;;4.15;2.28;;;;;;;23.24;65.25;101325.44;5026520;28;20025;-72
2023/09/29 09:05:34;;;;;;;5.53;2.22;;;;;;;23.85;62.75;101329.06;5041881;28;20101;-72
2023/09/29 09:08:01;;;;;;;6.07;2.58;;;;;;;24.42;60.36;101327.53;5039435;28;20087;-72
2023/09/29 09:10:31;;;;;;;2.83;2.20;;;;;;;23.79;61.86;101339.56;5044706;28;20037;-72
2023/09/29 09:12:57;;;;;;;4.35;2.35;;;;;;;23.37;63.15;101339.56;5046986;28;20029;-72
2023/09/29 09:15:25;;;;;;;4.85;2.63;;;;;;;23.20;64.00;101338.31;5041083;28;20525;-72
2023/09/29 09:17:51;;;;;;;6.63;2.47;;;;;;;23.07;64.75;101334.94;5041413;28;20512;-72
2023/09/29 09:20:17;;;;;;;4.53;2.40;;;;;;;23.01;64.44;101344.41;5048067;28;20035;-72
2023/09/29 09:22:42;;;;;;;4.93;2.65;;;;;;;23.21;63.89;101344.56;5046298;28;20584;-71
2023/09/29 09:25:08;;;;;;;3.60;2.55;;;;;;;23.05;64.78;101345.03;5044091;28;20116;-72
2023/09/29 09:27:42;;;;;;;5.10;2.85;;;;;;;22.96;65.71;101359.28;5037376;28;20029;-71
2023/09/29 09:30:23;;;;;;;5.82;2.53;;;;;;;22.78;67.16;101359.81;5046507;28;20549;-71
2023/09/29 09:32:49;;;;;;;5.07;2.85;;;;;;;22.56;68.42;101366.09;5049996;28;20017;-71
2023/09/29 09:35:28;;;;;;;7.40;2.42;;;;;;;22.49;68.32;101359.53;5058780;28;20410;-71
2023/09/29 09:37:54;;;;;;;7.60;3.15;;;;;;;22.46;68.14;101365.16;5057538;28;20127;-71
2023/09/29 09:40:21;;;;;;;7.72;2.85;;;;;;;22.54;68.30;101364.53;5046523;28;20037;-71
2023/09/29 09:42:47;;;;;;;7.65;2.80;;;;;;;22.65;68.45;101367.19;5054587;28;20036;-71
2023/09/29 09:45:13;;;;;;;4.30;2.35;;;;;;;22.62;67.83;101368.31;5050963;28;20029;-71
2023/09/29 09:47:40;;;;;;;5.32;2.75;;;;;;;22.58;67.92;101371.38;5045137;28;20512;-71
2023/09/29 09:50:06;;;;;;;5.18;2.53;;;;;;;;;;5042195;28;20033;-71
2023/09/29 09:52:31;;;;;;;4.15;2.25;;;;;;;22.50;68.23;101376.53;5051607;28;20033;-71
2023/09/29 09:54:58;;;;;;;4.47;2.60;;;;;;;22.36;67.94;101375.81;5027326;28;20091;-71
2023/09/29 09:57:35;;;;;;;3.38;2.35;;;;;;;22.30;68.07;101373.66;5041289;28;20436;-71
2023/09/29 10:00:07;;;;;;;3.80;2.25;;;;;;;22.20;67.69;101370.00;5048951;28;20388;-71
2023/09/29 10:02:35;;;;;;;5.65;2.53;;;;;;;22.28;68.37;101386.38;5050895;28;20033;-71
2023/09/29 10:05:03;;;;;;;6.90;2.50;;;;;;;22.37;67.92;101388.31;5042535;28;20036;-71
2023/09/29 10:07:28;;;;;;;4.07;2.47;;;;;;;22.40;68.31;101387.22;5057026;28;20129;-71
2023/09/29 10:09:53;;;;;;;3.42;2.50;;;;;;;22.49;68.14;101389.16;5046069;28;20063;-71
2023/09/29 10:12:27;;;;;;;5.72;3.03;;;;;;;22.48;68.00;101392.00;5036393;28;20021;-71
2023/09/29 10:14:53;;;;;;;5.20;2.70;;;;;;;22.37;68.62;101388.31;5040990;28;20024;-71
2023/09/29 10:17:20;;;;;;;5.40;2.70;;;;;;;22.30;68.84;101389.81;5033518;28;20023;-71
2023/09/29 10:19:50;;;;;;;5.60;2.50;;;;;;;22.26;68.91;101390.19;5031356;28;20390;-71
2023/09/29 10:22:28;;;;;;;3.03;2.40;;;;;;;22.23;68.68;101391.28;5037796;28;20035;-71
2023/09/29 10:24:56;;;;;;;4.38;2.30;;;;;;;22.13;68.97;101401.94;5040742;28;20415;-71
2023/09/29 10:27:32;;;;;;;3.85;2.50;;;;;;;22.13;69.34;101395.69;5033983;28;20028;-72
2023/09/29 10:30:18;;;;;;;4.25;2.72;;;;;;;22.12;69.36;101402.06;5036724;28;20024;-71
2023/09/29 10:32:48;;;;;;;8.27;2.78;;;;;;;22.13;69.34;101393.00;5042277;28;20029;-71
2023/09/29 10:35:18;;;;;;;4.70;2.40;;;;;;;22.18;69.03;101398.88;5036791;28;20032;-72
2023/09/29 10:37:45;;;;;;;6.03;2.65;;;;;;;22.28;69.41;101407.91;5034827;28;20025;-72
2023/09/29 10:40:20;;;;;;;4.90;3.25;;;;;;;22.24;69.14;101405.59;5041356;28;20056;-72
2023/09/29 10:42:46;;;;;;;6.63;2.50;;;;;;;22.21;69.24;101406.72;5037567;28;20033;-72
2023/09/29 10:45:22;;;;;;;5.00;2.70;;;;;;;22.20;68.76;101417.63;5045272;28;20033;-71
2023/09/29 10:47:48;;;;;;;4.70;2.60;;;;;;;22.21;69.43;101409.41;5036639;28;20507;-71
2023/09/29 10:50:13;;;;;;;6.82;2.97;;;;;;;22.27;68.79;101419.69;5049766;28;20033;-71
2023/09/29 10:52:40;;;;;;;5.57;2.60;;;;;;;22.37;68.38;101414.41;5037390;28;20130;-70
2023/09/29 10:55:10;;;;;;;4.22;2.50;;;;;;;22.37;68.60;101420.63;5041051;28;20029;-71
2023/09/29 10:57:36;;;;;;;6.75;2.45;;;;;;;22.38;68.90;101429.56;5048204;28;20028;-71
2023/09/29 11:00:02;;;;;;;3.97;2.13;;;;;;;22.30;68.85;101435.59;5052795;28;20025;-71
2023/09/29 11:02:30;;;;;;;5.72;2.45;;;;;;;22.25;68.66;101442.34;5050196;28;20035;-71
2023/09/29 11:04:57;;;;;;;6.30;2.67;;;;;;;22.12;69.29;101434.38;5048666;28;20032;-71
2023/09/29 11:07:23;;;;;;;4.90;2.47;;;;;;;22.11;69.45;101443.41;5049600;28;20064;-71
2023/09/29 11:09:48;;;;;;;6.35;2.70;;;;;;;22.27;69.61;101434.97;5043115;28;20020;-70
2023/09/29 11:12:17;;;;;;;5.78;2.60;;;;;;;22.91;68.20;101444.13;5051132;28;20491;-72
2023/09/29 11:14:43;;;;;;;4.15;2.40;;;;;;;23.75;65.94;101440.72;5036729;28;20036;-72
2023/09/29 11:17:10;;;;;;;5.03;2.50;;;;;;;23.55;65.79;101442.38;5048135;28;20033;-73
2023/09/29 11:19:35;;;;;;;6.10;2.80;;;;;;;23.40;66.26;101441.84;5050977;28;20025;-72
2023/09/29 11:22:03;;;;;;;4.50;2.80;;;;;;;23.52;65.10;101440.81;5046613;28;20024;-72
2023/09/29 11:24:39;;;;;;;6.38;2.65;;;;;;;24.01;64.71;101444.69;5036992;28;20126;-72